sensor_id;sensor_type;location;lat;lon;timestamp;pressure;altitude;pressure_sealevel;temperature;humidity
14273;BME280;7220;49.450;11.052;2023-11-21T00:01:55;97601.66;;;9.04;100.00
14273;BME280;7220;49.450;11.052;2023-11-21T00:05:56;97599.00;;;9.04;100.00
14273;BME280;7220;49.450;11.052;2023-11-21T00:09:57;97603.16;;;9.08;100.00
14273;BME280;7220;49.450;11.052;2023-11-21T00:13:57;97600.34;;;9.11;100.00
14273;BME280;7220;49.450;11.052;2023-11-21T00:17:57;97602.13;;;9.10;100.00
14273;BME280;7220;49.450;11.052;2023-11-21T00:21:58;97611.78;;;9.11;100.00
14273;BME280;7220;49.450;11.052;2023-11-21T00:25:58;97608.31;;;9.11;100.00
14273;BME280;7220;49.450;11.052;2023-11-21T00:29:58;97597.03;;;9.07;100.00
14273;BME280;7220;49.450;11.052;2023-11-21T00:33:59;97595.72;;;8.98;100.00
14273;BME280;7220;49.450;11.052;2023-11-21T00:37:59;97594.72;;;9.01;100.00
14273;BME280;7220;49.450;11.052;2023-11-21T00:41:59;97599.69;;;9.07;100.00
14273;BME280;7220;49.450;11.052;2023-11-21T00:46:04;97587.63;;;9.02;100.00
14273;BME280;7220;49.450;11.052;2023-11-21T00:50:05;97592.34;;;8.96;100.00
14273;BME280;7220;49.450;11.052;2023-11-21T00:54:08;97587.19;;;8.93;100.00
14273;BME280;7220;49.450;11.052;2023-11-21T00:58:08;97581.47;;;8.85;100.00
14273;BME280;7220;49.450;11.052;2023-11-21T01:02:10;97579.00;;;8.82;100.00
14273;BME280;7220;49.450;11.052;2023-11-21T01:06:11;97596.09;;;8.92;100.00
14273;BME280;7220;49.450;11.052;2023-11-21T01:10:11;97609.19;;;8.95;100.00
14273;BME280;7220;49.450;11.052;2023-11-21T01:14:11;97598.47;;;8.97;100.00
14273;BME280;7220;49.450;11.052;2023-11-21T01:18:13;97599.25;;;8.99;100.00
14273;BME280;7220;49.450;11.052;2023-11-21T01:22:13;97600.44;;;8.93;100.00
14273;BME280;7220;49.450;11.052;2023-11-21T01:26:14;97589.69;;;8.96;100.00
14273;BME280;7220;49.450;11.052;2023-11-21T01:30:14;97605.50;;;8.98;100.00
14273;BME280;7220;49.450;11.052;2023-11-21T01:34:14;97598.31;;;9.00;100.00
14273;BME280;7220;49.450;11.052;2023-11-21T01:38:15;97597.44;;;8.99;100.00
14273;BME280;7220;49.450;11.052;2023-11-21T01:42:17;97596.59;;;8.99;100.00
14273;BME280;7220;49.450;11.052;2023-11-21T01:46:19;97600.78;;;9.03;100.00
14273;BME280;7220;49.450;11.052;2023-11-21T01:50:21;97602.38;;;9.06;100.00
14273;BME280;7220;49.450;11.052;2023-11-21T01:54:22;97596.41;;;9.02;100.00
14273;BME280;7220;49.450;11.052;2023-11-21T01:58:23;97598.13;;;9.03;100.00
14273;BME280;7220;49.450;11.052;2023-11-21T02:02:23;97600.88;;;9.02;100.00
14273;BME280;7220;49.450;11.052;2023-11-21T02:06:24;97580.59;;;9.00;100.00
14273;BME280;7220;49.450;11.052;2023-11-21T02:10:25;97597.44;;;8.99;100.00
14273;BME280;7220;49.450;11.052;2023-11-21T02:14:27;97584.03;;;9.03;100.00
14273;BME280;7220;49.450;11.052;2023-11-21T02:18:28;97584.03;;;9.03;100.00
14273;BME280;7220;49.450;11.052;2023-11-21T02:22:30;97580.44;;;9.04;100.00
14273;BME280;7220;49.450;11.052;2023-11-21T02:26:31;97586.59;;;9.04;100.00
14273;BME280;7220;49.450;11.052;2023-11-21T02:30:31;97582.16;;;9.05;100.00
14273;BME280;7220;49.450;11.052;2023-11-21T02:34:32;97576.09;;;9.03;100.00
14273;BME280;7220;49.450;11.052;2023-11-21T02:38:33;97584.03;;;9.03;100.00
14273;BME280;7220;49.450;11.052;2023-11-21T02:42:33;97573.44;;;9.03;100.00
14273;BME280;7220;49.450;11.052;2023-11-21T02:46:34;97578.06;;;8.99;100.00
14273;BME280;7220;49.450;11.052;2023-11-21T02:50:35;97568.50;;;8.96;100.00
14273;BME280;7220;49.450;11.052;2023-11-21T02:54:36;97572.81;;;8.97;100.00
14273;BME280;7220;49.450;11.052;2023-11-21T02:58:36;97570.94;;;8.99;100.00
14273;BME280;7220;49.450;11.052;2023-11-21T03:02:36;97564.03;;;8.97;100.00
14273;BME280;7220;49.450;11.052;2023-11-21T03:06:39;97556.09;;;8.97;100.00
14273;BME280;7220;49.450;11.052;2023-11-21T03:10:39;97563.00;;;8.99;100.00
14273;BME280;7220;49.450;11.052;2023-11-21T03:14:40;97564.88;;;8.97;100.00
14273;BME280;7220;49.450;11.052;2023-11-21T03:18:40;97570.16;;;8.97;100.00
14273;BME280;7220;49.450;11.052;2023-11-21T03:22:40;97575.56;;;8.96;100.00
14273;BME280;7220;49.450;11.052;2023-11-21T03:26:41;97587.19;;;8.93;100.00
14273;BME280;7220;49.450;11.052;2023-11-21T03:30:41;97580.19;;;8.92;100.00
14273;BME280;7220;49.450;11.052;2023-11-21T03:34:57;97585.50;;;8.92;100.00
14273;BME280;7220;49.450;11.052;2023-11-21T03:38:58;97579.25;;;8.93;100.00
14273;BME280;7220;49.450;11.052;2023-11-21T03:42:58;97580.19;;;8.92;100.00
14273;BME280;7220;49.450;11.052;2023-11-21T03:46:59;97577.53;;;8.92;100.00
14273;BME280;7220;49.450;11.052;2023-11-21T03:50:59;97588.91;;;8.94;100.00
14273;BME280;7220;49.450;11.052;2023-11-21T03:54:59;97579.09;;;8.96;100.00
14273;BME280;7220;49.450;11.052;2023-11-21T03:59:00;97586.44;;;8.91;100.00
14273;BME280;7220;49.450;11.052;2023-11-21T04:03:00;97591.56;;;8.94;100.00
14273;BME280;7220;49.450;11.052;2023-11-21T04:07:00;97589.75;;;8.95;100.00
14273;BME280;7220;49.450;11.052;2023-11-21T04:11:00;97588.13;;;8.92;100.00
14273;BME280;7220;49.450;11.052;2023-11-21T04:15:01;97575.56;;;8.96;100.00
14273;BME280;7220;49.450;11.052;2023-11-21T04:19:01;97575.56;;;8.96;100.00
14273;BME280;7220;49.450;11.052;2023-11-21T04:23:02;97572.06;;;8.95;100.00
14273;BME280;7220;49.450;11.052;2023-11-21T04:27:03;97570.38;;;8.94;100.00
14273;BME280;7220;49.450;11.052;2023-11-21T04:31:03;97587.63;;;9.02;100.00
14273;BME280;7220;49.450;11.052;2023-11-21T04:35:04;97575.31;;;9.00;100.00
14273;BME280;7220;49.450;11.052;2023-11-21T04:39:04;97581.53;;;8.99;100.00
14273;BME280;7220;49.450;11.052;2023-11-21T04:43:06;97605.41;;;8.99;100.00
14273;BME280;7220;49.450;11.052;2023-11-21T04:47:07;97600.41;;;9.09;100.00
14273;BME280;7220;49.450;11.052;2023-11-21T04:51:07;97604.72;;;9.12;100.00
14273;BME280;7220;49.450;11.052;2023-11-21T04:55:08;97599.22;;;9.15;100.00
14273;BME280;7220;49.450;11.052;2023-11-21T04:59:10;97613.41;;;9.14;100.00
14273;BME280;7220;49.450;11.052;2023-11-21T05:03:10;97607.38;;;9.12;100.00
14273;BME280;7220;49.450;11.052;2023-11-21T05:07:10;97606.44;;;9.13;100.00
14273;BME280;7220;49.450;11.052;2023-11-21T05:11:12;97605.56;;;9.12;100.00
14273;BME280;7220;49.450;11.052;2023-11-21T05:15:14;97609.66;;;9.18;100.00
14273;BME280;7220;49.450;11.052;2023-11-21T05:19:14;97603.00;;;9.11;100.00
14273;BME280;7220;49.450;11.052;2023-11-21T05:23:15;97622.34;;;9.13;100.00
14273;BME280;7220;49.450;11.052;2023-11-21T05:27:15;97614.53;;;9.10;100.00
14273;BME280;7220;49.450;11.052;2023-11-21T05:31:16;97618.91;;;9.11;100.00
14273;BME280;7220;49.450;11.052;2023-11-21T05:35:16;97627.63;;;9.13;100.00
14273;BME280;7220;49.450;11.052;2023-11-21T05:39:17;97636.44;;;9.13;100.00
14273;BME280;7220;49.450;11.052;2023-11-21T05:43:17;97638.25;;;9.13;100.00
14273;BME280;7220;49.450;11.052;2023-11-21T05:47:18;97640.00;;;9.12;100.00
14273;BME280;7220;49.450;11.052;2023-11-21T05:51:18;97641.81;;;9.12;100.00
14273;BME280;7220;49.450;11.052;2023-11-21T05:55:19;97645.41;;;9.11;100.00
14273;BME280;7220;49.450;11.052;2023-11-21T05:59:21;97640.28;;;9.08;100.00
14273;BME280;7220;49.450;11.052;2023-11-21T06:03:21;97637.41;;;8.96;100.00
14273;BME280;7220;49.450;11.052;2023-11-21T06:07:23;97637.47;;;8.95;100.00
14273;BME280;7220;49.450;11.052;2023-11-21T06:11:23;97649.00;;;8.94;100.00
14273;BME280;7220;49.450;11.052;2023-11-21T06:15:24;97654.22;;;8.95;100.00
14273;BME280;7220;49.450;11.052;2023-11-21T06:19:24;97659.19;;;9.02;100.00
14273;BME280;7220;49.450;11.052;2023-11-21T06:23:25;97650.38;;;9.01;100.00
14273;BME280;7220;49.450;11.052;2023-11-21T06:27:25;97659.97;;;9.04;100.00
14273;BME280;7220;49.450;11.052;2023-11-21T06:31:26;97663.53;;;9.03;100.00
14273;BME280;7220;49.450;11.052;2023-11-21T06:35:26;97661.06;;;8.99;100.00
14273;BME280;7220;49.450;11.052;2023-11-21T06:39:30;97662.00;;;8.98;100.00
14273;BME280;7220;49.450;11.052;2023-11-21T06:43:30;97667.13;;;9.02;100.00
14273;BME280;7220;49.450;11.052;2023-11-21T06:47:33;97673.47;;;8.99;100.00
14273;BME280;7220;49.450;11.052;2023-11-21T06:51:34;97680.47;;;9.00;100.00
14273;BME280;7220;49.450;11.052;2023-11-21T06:55:35;97688.19;;;9.05;100.00
14273;BME280;7220;49.450;11.052;2023-11-21T06:59:35;97684.56;;;9.06;100.00
14273;BME280;7220;49.450;11.052;2023-11-21T07:03:36;97709.09;;;9.09;100.00
14273;BME280;7220;49.450;11.052;2023-11-21T07:07:37;97708.09;;;9.12;100.00
14273;BME280;7220;49.450;11.052;2023-11-21T07:11:37;97703.72;;;9.11;100.00
14273;BME280;7220;49.450;11.052;2023-11-21T07:15:38;97717.66;;;9.14;100.00
14273;BME280;7220;49.450;11.052;2023-11-21T07:19:39;97720.22;;;9.16;100.00
14273;BME280;7220;49.450;11.052;2023-11-21T07:23:39;97731.59;;;9.18;100.00
14273;BME280;7220;49.450;11.052;2023-11-21T07:27:39;97731.59;;;9.18;100.00
14273;BME280;7220;49.450;11.052;2023-11-21T07:31:40;97739.41;;;9.21;100.00
14273;BME280;7220;49.450;11.052;2023-11-21T07:35:41;97738.28;;;9.25;100.00
14273;BME280;7220;49.450;11.052;2023-11-21T07:39:42;97747.16;;;9.24;100.00
14273;BME280;7220;49.450;11.052;2023-11-21T07:43:42;97744.50;;;9.24;100.00
14273;BME280;7220;49.450;11.052;2023-11-21T07:47:43;97746.13;;;9.27;100.00
14273;BME280;7220;49.450;11.052;2023-11-21T07:51:43;97748.53;;;9.31;100.00
14273;BME280;7220;49.450;11.052;2023-11-21T07:55:44;97749.31;;;9.34;100.00
14273;BME280;7220;49.450;11.052;2023-11-21T07:59:45;97749.06;;;9.38;100.00
14273;BME280;7220;49.450;11.052;2023-11-21T08:03:45;97755.19;;;9.39;100.00
14273;BME280;7220;49.450;11.052;2023-11-21T08:07:47;97763.00;;;9.42;100.00
14273;BME280;7220;49.450;11.052;2023-11-21T08:11:47;97762.16;;;9.41;100.00
14273;BME280;7220;49.450;11.052;2023-11-21T08:15:47;97751.44;;;9.43;100.00
14273;BME280;7220;49.450;11.052;2023-11-21T08:19:48;97768.03;;;9.46;100.00
14273;BME280;7220;49.450;11.052;2023-11-21T08:23:49;97763.53;;;9.49;100.00
14273;BME280;7220;49.450;11.052;2023-11-21T08:27:53;97761.72;;;9.49;100.00
14273;BME280;7220;49.450;11.052;2023-11-21T08:31:54;97759.84;;;9.51;100.00
14273;BME280;7220;49.450;11.052;2023-11-21T08:35:54;97757.75;;;9.56;100.00
14273;BME280;7220;49.450;11.052;2023-11-21T08:39:55;97764.78;;;9.57;100.00
14273;BME280;7220;49.450;11.052;2023-11-21T08:43:55;97770.59;;;9.64;100.00
14273;BME280;7220;49.450;11.052;2023-11-21T08:47:56;97768.53;;;9.69;100.00
14273;BME280;7220;49.450;11.052;2023-11-21T08:51:56;97774.34;;;9.76;100.00
14273;BME280;7220;49.450;11.052;2023-11-21T08:55:59;97774.94;;;9.81;100.00
14273;BME280;7220;49.450;11.052;2023-11-21T08:59:59;97785.97;;;9.89;100.00
14273;BME280;7220;49.450;11.052;2023-11-21T09:04:00;97785.81;;;9.92;100.00
14273;BME280;7220;49.450;11.052;2023-11-21T09:08:00;97795.38;;;9.95;100.00
14273;BME280;7220;49.450;11.052;2023-11-21T09:12:01;97798.63;;;10.00;100.00
14273;BME280;7220;49.450;11.052;2023-11-21T09:16:02;97799.66;;;9.98;100.00
14273;BME280;7220;49.450;11.052;2023-11-21T09:20:02;97802.88;;;10.03;100.00
14273;BME280;7220;49.450;11.052;2023-11-21T09:24:05;97808.41;;;10.00;100.00
14273;BME280;7220;49.450;11.052;2023-11-21T09:28:06;97807.47;;;10.01;100.00
14273;BME280;7220;49.450;11.052;2023-11-21T09:32:09;97823.03;;;10.07;100.00
14273;BME280;7220;49.450;11.052;2023-11-21T09:36:12;97826.25;;;10.12;100.00
14273;BME280;7220;49.450;11.052;2023-11-21T09:40:14;97823.44;;;10.15;100.00
14273;BME280;7220;49.450;11.052;2023-11-21T09:44:29;97819.47;;;10.22;100.00
14273;BME280;7220;49.450;11.052;2023-11-21T09:48:34;97827.19;;;10.27;100.00
14273;BME280;7220;49.450;11.052;2023-11-21T09:52:49;97834.00;;;10.31;100.00
14273;BME280;7220;49.450;11.052;2023-11-21T09:56:54;97825.63;;;10.39;100.00
14273;BME280;7220;49.450;11.052;2023-11-21T10:00:55;97824.22;;;10.48;100.00
14273;BME280;7220;49.450;11.052;2023-11-21T10:04:59;97826.44;;;10.55;100.00
14273;BME280;7220;49.450;11.052;2023-11-21T10:09:00;97826.06;;;10.62;100.00
14273;BME280;7220;49.450;11.052;2023-11-21T10:13:03;97825.88;;;10.65;100.00
14273;BME280;7220;49.450;11.052;2023-11-21T10:17:07;97827.41;;;10.69;100.00
14273;BME280;7220;49.450;11.052;2023-11-21T10:21:09;97818.97;;;10.77;100.00
14273;BME280;7220;49.450;11.052;2023-11-21T10:25:10;97823.72;;;10.86;100.00
14273;BME280;7220;49.450;11.052;2023-11-21T10:29:14;97817.28;;;10.90;100.00
14273;BME280;7220;49.450;11.052;2023-11-21T10:33:16;97811.78;;;10.93;100.00
14273;BME280;7220;49.450;11.052;2023-11-21T10:37:17;97821.38;;;10.96;100.00
14273;BME280;7220;49.450;11.052;2023-11-21T10:41:17;97813.38;;;10.96;100.00
14273;BME280;7220;49.450;11.052;2023-11-21T10:45:18;97817.66;;;10.98;100.00
14273;BME280;7220;49.450;11.052;2023-11-21T10:49:19;97827.72;;;11.08;100.00
14273;BME280;7220;49.450;11.052;2023-11-21T10:53:20;97839.41;;;11.19;100.00
14273;BME280;7220;49.450;11.052;2023-11-21T10:57:22;97840.84;;;11.25;100.00
14273;BME280;7220;49.450;11.052;2023-11-21T11:01:25;97826.66;;;11.25;100.00
14273;BME280;7220;49.450;11.052;2023-11-21T11:05:29;97832.00;;;11.25;100.00
14273;BME280;7220;49.450;11.052;2023-11-21T11:09:32;97829.03;;;11.29;100.00
14273;BME280;7220;49.450;11.052;2023-11-21T11:13:33;97838.34;;;11.36;100.00
14273;BME280;7220;49.450;11.052;2023-11-21T11:17:38;97833.91;;;11.37;100.00
14273;BME280;7220;49.450;11.052;2023-11-21T11:25:58;97830.84;;;11.43;100.00
14273;BME280;7220;49.450;11.052;2023-11-21T11:34:26;97828.22;;;11.29;100.00
14273;BME280;7220;49.450;11.052;2023-11-21T11:38:33;97845.13;;;11.28;100.00
14273;BME280;7220;49.450;11.052;2023-11-21T11:42:35;97830.28;;;11.24;100.00
14273;BME280;7220;49.450;11.052;2023-11-21T11:46:45;97842.06;;;11.19;100.00
14273;BME280;7220;49.450;11.052;2023-11-21T11:51:25;97836.75;;;11.19;100.00
14273;BME280;7220;49.450;11.052;2023-11-21T11:55:25;97831.63;;;11.16;100.00
14273;BME280;7220;49.450;11.052;2023-11-21T11:59:25;97844.91;;;11.16;100.00
14273;BME280;7220;49.450;11.052;2023-11-21T12:03:26;97843.78;;;11.20;100.00
14273;BME280;7220;49.450;11.052;2023-11-21T12:07:45;97845.28;;;11.25;100.00
14273;BME280;7220;49.450;11.052;2023-11-21T12:11:47;97860.19;;;11.27;100.00
14273;BME280;7220;49.450;11.052;2023-11-21T12:15:48;97853.66;;;11.33;100.00
14273;BME280;7220;49.450;11.052;2023-11-21T12:19:48;97844.44;;;11.39;100.00
14273;BME280;7220;49.450;11.052;2023-11-21T12:23:51;97851.25;;;11.43;100.00
14273;BME280;7220;49.450;11.052;2023-11-21T12:27:52;97853.06;;;11.42;100.00
14273;BME280;7220;49.450;11.052;2023-11-21T12:31:52;97846.22;;;11.38;100.00
14273;BME280;7220;49.450;11.052;2023-11-21T12:35:53;97861.84;;;11.44;100.00
14273;BME280;7220;49.450;11.052;2023-11-21T12:39:53;97847.56;;;11.45;100.00
14273;BME280;7220;49.450;11.052;2023-11-21T12:43:58;97859.34;;;11.41;100.00
14273;BME280;7220;49.450;11.052;2023-11-21T12:48:02;97867.16;;;11.44;100.00
14273;BME280;7220;49.450;11.052;2023-11-21T12:52:08;97869.03;;;11.42;100.00
14273;BME280;7220;49.450;11.052;2023-11-21T12:56:12;97878.91;;;11.40;100.00
14273;BME280;7220;49.450;11.052;2023-11-21T13:00:13;97883.47;;;11.38;100.00
14273;BME280;7220;49.450;11.052;2023-11-21T13:04:31;97876.66;;;11.34;100.00
14273;BME280;7220;49.450;11.052;2023-11-21T13:08:31;97885.56;;;11.33;99.99
14273;BME280;7220;49.450;11.052;2023-11-21T13:12:33;97889.19;;;11.32;99.28
14273;BME280;7220;49.450;11.052;2023-11-21T13:16:35;97891.78;;;11.33;99.63
14273;BME280;7220;49.450;11.052;2023-11-21T13:20:35;97879.31;;;11.34;99.30
14273;BME280;7220;49.450;11.052;2023-11-21T13:24:35;97889.66;;;11.39;98.65
14273;BME280;7220;49.450;11.052;2023-11-21T13:28:36;97892.22;;;11.40;99.57
14273;BME280;7220;49.450;11.052;2023-11-21T13:32:37;97888.63;;;11.41;98.56
14273;BME280;7220;49.450;11.052;2023-11-21T13:36:37;97892.41;;;11.51;98.54
14273;BME280;7220;49.450;11.052;2023-11-21T13:40:39;97895.25;;;11.63;97.74
14273;BME280;7220;49.450;11.052;2023-11-21T13:44:42;97891.16;;;11.72;97.52
14273;BME280;7220;49.450;11.052;2023-11-21T13:48:47;97900.38;;;11.80;97.76
14273;BME280;7220;49.450;11.052;2023-11-21T13:52:56;97898.94;;;11.89;97.24
14273;BME280;7220;49.450;11.052;2023-11-21T13:56:56;97905.75;;;11.93;96.72
14273;BME280;7220;49.450;11.052;2023-11-21T14:00:56;97900.25;;;11.96;97.06
14273;BME280;7220;49.450;11.052;2023-11-21T14:04:57;97897.59;;;11.96;96.00
14273;BME280;7220;49.450;11.052;2023-11-21T14:09:01;97900.25;;;11.96;94.88
14273;BME280;7220;49.450;11.052;2023-11-21T14:13:06;97897.66;;;11.95;94.68
14273;BME280;7220;49.450;11.052;2023-11-21T14:17:06;97887.81;;;11.97;94.62
14273;BME280;7220;49.450;11.052;2023-11-21T14:21:06;97913.31;;;12.01;93.60
14273;BME280;7220;49.450;11.052;2023-11-21T14:25:09;97918.03;;;11.96;92.88
14273;BME280;7220;49.450;11.052;2023-11-21T14:29:12;97922.59;;;11.94;92.61
14273;BME280;7220;49.450;11.052;2023-11-21T14:33:14;97930.31;;;11.84;91.79
14273;BME280;7220;49.450;11.052;2023-11-21T14:37:16;97927.38;;;11.74;92.46
14273;BME280;7220;49.450;11.052;2023-11-21T14:41:16;97941.47;;;11.76;93.03
14273;BME280;7220;49.450;11.052;2023-11-21T14:45:17;97935.75;;;11.68;92.53
14273;BME280;7220;49.450;11.052;2023-11-21T14:49:20;97938.78;;;11.62;92.15
14273;BME280;7220;49.450;11.052;2023-11-21T14:53:20;97940.69;;;11.60;92.31
14273;BME280;7220;49.450;11.052;2023-11-21T14:57:40;97951.53;;;11.57;92.40
14273;BME280;7220;49.450;11.052;2023-11-21T15:01:41;97944.88;;;11.49;92.32
14273;BME280;7220;49.450;11.052;2023-11-21T15:05:55;97947.03;;;11.43;91.79
14273;BME280;7220;49.450;11.052;2023-11-21T15:09:55;97947.31;;;11.38;90.63
14273;BME280;7220;49.450;11.052;2023-11-21T15:13:57;97964.25;;;11.37;90.60
14273;BME280;7220;49.450;11.052;2023-11-21T15:17:58;97956.84;;;11.28;90.56
14273;BME280;7220;49.450;11.052;2023-11-21T15:21:58;97966.81;;;11.24;91.19
14273;BME280;7220;49.450;11.052;2023-11-21T15:25:58;97970.78;;;11.17;92.59
14273;BME280;7220;49.450;11.052;2023-11-21T15:29:59;97966.84;;;11.08;91.60
14273;BME280;7220;49.450;11.052;2023-11-21T15:33:59;97972.53;;;11.02;91.98
14273;BME280;7220;49.450;11.052;2023-11-21T15:38:00;97978.03;;;10.99;92.06
14273;BME280;7220;49.450;11.052;2023-11-21T15:42:00;97984.59;;;10.93;92.42
14273;BME280;7220;49.450;11.052;2023-11-21T15:46:00;97984.09;;;10.86;92.70
14273;BME280;7220;49.450;11.052;2023-11-21T15:50:07;97988.53;;;10.86;93.40
14273;BME280;7220;49.450;11.052;2023-11-21T15:54:10;97988.47;;;10.87;93.13
14273;BME280;7220;49.450;11.052;2023-11-21T15:58:11;97994.88;;;10.83;93.43
14273;BME280;7220;49.450;11.052;2023-11-21T16:02:11;97990.09;;;10.74;93.78
14273;BME280;7220;49.450;11.052;2023-11-21T16:06:12;98005.19;;;10.73;93.05
14273;BME280;7220;49.450;11.052;2023-11-21T16:10:12;98013.44;;;10.69;94.12
14273;BME280;7220;49.450;11.052;2023-11-21T16:14:15;98005.22;;;10.57;93.53
14273;BME280;7220;49.450;11.052;2023-11-21T16:18:19;98017.38;;;10.62;93.12
14273;BME280;7220;49.450;11.052;2023-11-21T16:22:19;98017.75;;;10.55;94.31
14273;BME280;7220;49.450;11.052;2023-11-21T16:26:20;98039.06;;;10.54;93.59
14273;BME280;7220;49.450;11.052;2023-11-21T16:30:20;98036.50;;;10.52;94.31
14273;BME280;7220;49.450;11.052;2023-11-21T16:34:23;98031.09;;;10.54;94.13
14273;BME280;7220;49.450;11.052;2023-11-21T16:38:24;98042.75;;;10.51;94.23
14273;BME280;7220;49.450;11.052;2023-11-21T16:42:24;98052.63;;;10.49;93.67
14273;BME280;7220;49.450;11.052;2023-11-21T16:46:25;98055.81;;;10.40;94.69
14273;BME280;7220;49.450;11.052;2023-11-21T16:50:25;98066.34;;;10.41;94.69
14273;BME280;7220;49.450;11.052;2023-11-21T16:54:26;98078.94;;;10.38;95.48
14273;BME280;7220;49.450;11.052;2023-11-21T16:58:27;98065.00;;;10.33;95.76
14273;BME280;7220;49.450;11.052;2023-11-21T17:02:27;98072.19;;;10.31;95.84
14273;BME280;7220;49.450;11.052;2023-11-21T17:06:27;98080.78;;;10.36;95.30
14273;BME280;7220;49.450;11.052;2023-11-21T17:10:28;98089.84;;;10.32;96.48
14273;BME280;7220;49.450;11.052;2023-11-21T17:14:28;98095.09;;;10.33;96.39
14273;BME280;7220;49.450;11.052;2023-11-21T17:18:28;98093.34;;;10.32;95.84
14273;BME280;7220;49.450;11.052;2023-11-21T17:22:29;98091.72;;;10.30;95.81
14273;BME280;7220;49.450;11.052;2023-11-21T17:26:29;98081.25;;;10.26;96.70
14273;BME280;7220;49.450;11.052;2023-11-21T17:30:31;98093.44;;;10.31;95.86
14273;BME280;7220;49.450;11.052;2023-11-21T17:34:31;98105.00;;;10.30;95.70
14273;BME280;7220;49.450;11.052;2023-11-21T17:38:31;98109.53;;;10.27;96.46
14273;BME280;7220;49.450;11.052;2023-11-21T17:42:32;98105.84;;;10.30;96.37
14273;BME280;7220;49.450;11.052;2023-11-21T19:46:12;98247.13;;;10.38;100.00
14273;BME280;7220;49.450;11.052;2023-11-21T19:50:16;98245.41;;;10.88;100.00
14273;BME280;7220;49.450;11.052;2023-11-21T19:54:16;98251.16;;;10.63;100.00
14273;BME280;7220;49.450;11.052;2023-11-21T19:58:16;98264.69;;;10.58;100.00
14273;BME280;7220;49.450;11.052;2023-11-21T20:02:17;98273.78;;;10.37;100.00
14273;BME280;7220;49.450;11.052;2023-11-21T20:06:18;98282.03;;;10.13;100.00
14273;BME280;7220;49.450;11.052;2023-11-21T20:10:19;98284.53;;;9.99;100.00
14273;BME280;7220;49.450;11.052;2023-11-21T20:14:21;98297.69;;;9.83;100.00
14273;BME280;7220;49.450;11.052;2023-11-21T20:18:21;98301.81;;;9.71;100.00
14273;BME280;7220;49.450;11.052;2023-11-21T20:22:21;98320.19;;;9.56;100.00
14273;BME280;7220;49.450;11.052;2023-11-21T20:26:22;98327.06;;;9.22;100.00
14273;BME280;7220;49.450;11.052;2023-11-21T20:30:23;98317.59;;;8.97;100.00
14273;BME280;7220;49.450;11.052;2023-11-21T20:34:27;98353.81;;;8.78;100.00
14273;BME280;7220;49.450;11.052;2023-11-21T20:38:27;98329.09;;;8.57;100.00
14273;BME280;7220;49.450;11.052;2023-11-21T20:42:27;98348.72;;;8.30;100.00
14273;BME280;7220;49.450;11.052;2023-11-21T20:46:31;98367.75;;;8.18;100.00
14273;BME280;7220;49.450;11.052;2023-11-21T20:50:31;98349.28;;;7.96;100.00
14273;BME280;7220;49.450;11.052;2023-11-21T20:54:32;98379.28;;;7.95;100.00
14273;BME280;7220;49.450;11.052;2023-11-21T20:58:32;98376.91;;;7.88;100.00
14273;BME280;7220;49.450;11.052;2023-11-21T21:02:32;98371.22;;;7.76;100.00
14273;BME280;7220;49.450;11.052;2023-11-21T21:06:33;98385.31;;;7.76;100.00
14273;BME280;7220;49.450;11.052;2023-11-21T21:10:33;98386.47;;;7.69;100.00
14273;BME280;7220;49.450;11.052;2023-11-21T21:14:33;98391.94;;;7.64;100.00
14273;BME280;7220;49.450;11.052;2023-11-21T21:18:34;98375.25;;;7.40;100.00
14273;BME280;7220;49.450;11.052;2023-11-21T21:22:34;98396.00;;;7.51;100.00
14273;BME280;7220;49.450;11.052;2023-11-21T21:26:34;98404.25;;;7.41;100.00
14273;BME280;7220;49.450;11.052;2023-11-21T21:30:35;98423.69;;;7.40;100.00
14273;BME280;7220;49.450;11.052;2023-11-21T21:34:35;98415.09;;;7.34;100.00
14273;BME280;7220;49.450;11.052;2023-11-21T21:38:38;98428.63;;;7.26;100.00
14273;BME280;7220;49.450;11.052;2023-11-21T21:42:39;98440.94;;;7.27;100.00
14273;BME280;7220;49.450;11.052;2023-11-21T21:46:39;98422.00;;;7.14;100.00
14273;BME280;7220;49.450;11.052;2023-11-21T21:50:40;98430.09;;;7.09;100.00
14273;BME280;7220;49.450;11.052;2023-11-21T21:54:40;98447.69;;;7.10;100.00
14273;BME280;7220;49.450;11.052;2023-11-21T21:58:40;98448.59;;;7.09;100.00
14273;BME280;7220;49.450;11.052;2023-11-21T22:02:41;98450.75;;;6.98;100.00
14273;BME280;7220;49.450;11.052;2023-11-21T22:06:42;98456.16;;;6.95;100.00
14273;BME280;7220;49.450;11.052;2023-11-21T22:10:43;98457.53;;;6.80;100.00
14273;BME280;7220;49.450;11.052;2023-11-21T22:14:43;98465.38;;;6.83;100.00
14273;BME280;7220;49.450;11.052;2023-11-21T22:18:43;98471.13;;;6.69;100.00
14273;BME280;7220;49.450;11.052;2023-11-21T22:22:44;98479.28;;;6.61;100.00
14273;BME280;7220;49.450;11.052;2023-11-21T22:26:44;98485.59;;;6.57;100.00
14273;BME280;7220;49.450;11.052;2023-11-21T22:30:44;98487.56;;;6.51;100.00
14273;BME280;7220;49.450;11.052;2023-11-21T22:34:45;98485.72;;;6.53;100.00
14273;BME280;7220;49.450;11.052;2023-11-21T22:38:45;98492.75;;;6.54;100.00
14273;BME280;7220;49.450;11.052;2023-11-21T22:42:46;98501.66;;;6.50;100.00
14273;BME280;7220;49.450;11.052;2023-11-21T22:46:46;98500.13;;;6.44;100.00
14273;BME280;7220;49.450;11.052;2023-11-21T22:50:47;98495.81;;;6.40;100.00
14273;BME280;7220;49.450;11.052;2023-11-21T22:54:47;98510.81;;;6.39;100.00
14273;BME280;7220;49.450;11.052;2023-11-21T22:58:48;98502.06;;;6.37;100.00
14273;BME280;7220;49.450;11.052;2023-11-21T23:02:48;98511.81;;;6.35;100.00
14273;BME280;7220;49.450;11.052;2023-11-21T23:06:49;98483.38;;;6.17;100.00
14273;BME280;7220;49.450;11.052;2023-11-21T23:10:49;98503.31;;;6.25;100.00
14273;BME280;7220;49.450;11.052;2023-11-21T23:14:50;98519.22;;;6.24;100.00
14273;BME280;7220;49.450;11.052;2023-11-21T23:18:50;98515.97;;;6.14;100.00
14273;BME280;7220;49.450;11.052;2023-11-21T23:22:52;98520.59;;;6.07;100.00